Terminal Aerodrome Forecast
Issued by NWS

Home | Current Version | Previous Version | Text Only | Print | Product List | Glossary On
Versions: 1 2 3 4 5 6 7 8 9 10 11 12 13 14 15 16 17 18 19 20 21 22 23 24
000
FTUS45 KGJT 301739
TAFASE
TAF
KASE 301739Z 3018/3118 00000KT P6SM BKN080 OVC100
     FM302100 01003KT P6SM VCSH BKN035 OVC050
     FM310000 17003KT P6SM VCSH BKN020 OVC030
      TEMPO 3100/3104 3SM -SNRA BR BKN009 OVC020
     FM310400 18003KT 2SM -SN BR OVC012=

USA.gov is the U.S. government's official web portal to all federal, state and local government web resources and services.